Time;durP1;ratioP1;P1;durP2;ratioP2;P2;SDS_P1;SDS_P2;PMS_P1;PMS_P2;Temp;Humidity;BMP_temperature;BMP_pressure;BME280_temperature;BME280_humidity;BME280_pressure;Samples;Min_cycle;Max_cycle;Signal;HPM_P1;HPM_P2
2023/01/21 04:00:45;;;;;;;2.85;1.88;;;14.00;49.80;;;;;;5841374;22;45876;-64
2023/01/21 04:03:11;;;;;;;2.45;1.95;;;14.00;49.90;;;;;;4897911;23;47306;-64
2023/01/21 04:05:36;;;;;;;2.55;2.08;;;13.90;49.80;;;;;;4912273;28;45362;-65
2023/01/21 04:08:02;;;;;;;2.05;1.80;;;13.90;49.80;;;;;;4914160;28;45434;-64
2023/01/21 04:10:27;;;;;;;2.63;1.83;;;13.90;49.80;;;;;;4896261;28;46313;-64
2023/01/21 04:12:53;;;;;;;2.30;1.85;;;13.90;49.80;;;;;;4899020;28;47127;-64
2023/01/21 04:15:18;;;;;;;2.40;2.10;;;13.90;49.80;;;;;;4906912;28;45549;-63
2023/01/21 04:17:44;;;;;;;3.40;2.47;;;13.90;49.90;;;;;;4870132;28;45849;-63
2023/01/21 04:20:10;;;;;;;2.90;2.35;;;13.90;49.90;;;;;;4911513;28;45221;-63
2023/01/21 04:22:36;;;;;;;2.65;2.00;;;13.90;49.80;;;;;;4890095;28;45273;-63
2023/01/21 04:25:04;;;;;;;2.30;1.92;;;13.90;49.90;;;;;;4892044;28;45552;-64
2023/01/21 04:27:29;;;;;;;3.00;1.85;;;13.80;49.80;;;;;;4901761;28;45322;-64
2023/01/21 04:29:55;;;;;;;2.63;2.22;;;13.90;49.80;;;;;;4894545;28;44725;-64
2023/01/21 04:32:20;;;;;;;2.13;1.60;;;13.80;49.80;;;;;;4891836;28;46430;-63
2023/01/21 04:34:46;;;;;;;3.35;2.10;;;13.80;49.80;;;;;;4876892;28;45417;-63
2023/01/21 04:37:11;;;;;;;3.05;2.00;;;13.80;49.80;;;;;;4894292;28;45624;-63
2023/01/21 04:39:37;;;;;;;2.75;2.13;;;13.80;49.80;;;;;;4909285;28;45535;-63
2023/01/21 04:42:04;;;;;;;2.90;2.20;;;13.80;49.80;;;;;;4893079;28;45724;-64
2023/01/21 04:44:29;;;;;;;2.75;1.95;;;13.80;49.90;;;;;;4886003;28;45625;-63
2023/01/21 04:46:55;;;;;;;3.60;2.30;;;13.80;49.90;;;;;;4892838;28;45322;-64
2023/01/21 04:49:20;;;;;;;2.15;1.92;;;13.80;49.80;;;;;;4909886;28;45259;-64
2023/01/21 04:51:46;;;;;;;2.95;2.08;;;13.80;49.90;;;;;;4910377;28;45515;-64
2023/01/21 04:54:11;;;;;;;2.85;1.92;;;13.70;49.90;;;;;;4878422;28;45399;-64
2023/01/21 04:56:37;;;;;;;2.80;2.10;;;13.70;49.90;;;;;;4892229;28;45566;-63
2023/01/21 04:59:02;;;;;;;2.00;1.83;;;13.70;49.90;;;;;;4909440;28;45961;-63
2023/01/21 05:01:28;;;;;;;3.17;2.05;;;13.70;50.40;;;;;;4892100;28;45046;-64
2023/01/21 05:03:53;;;;;;;2.33;1.80;;;13.70;49.90;;;;;;4908379;28;44731;-64
2023/01/21 05:06:19;;;;;;;2.90;2.20;;;13.70;49.90;;;;;;4892504;28;45488;-64
2023/01/21 05:08:44;;;;;;;2.30;2.00;;;13.70;49.90;;;;;;4908619;28;45290;-64
2023/01/21 05:11:11;;;;;;;3.00;2.00;;;13.70;49.90;;;;;;4892554;28;46278;-64
2023/01/21 05:13:36;;;;;;;3.63;2.38;;;13.70;50.00;;;;;;4892980;28;45304;-63
2023/01/21 05:16:03;;;;;;;2.63;2.20;;;13.70;50.00;;;;;;4871531;28;45495;-63
2023/01/21 05:18:29;;;;;;;3.05;2.22;;;13.70;50.00;;;;;;4891178;28;45832;-64
2023/01/21 05:20:55;;;;;;;3.13;2.10;;;13.70;49.90;;;;;;4910643;28;45353;-63
2023/01/21 05:23:21;;;;;;;3.30;2.30;;;13.60;49.90;;;;;;4891528;28;45356;-63
2023/01/21 05:25:48;;;;;;;3.08;2.00;;;13.60;49.90;;;;;;4894234;28;45356;-63
2023/01/21 05:28:13;;;;;;;2.42;2.08;;;13.60;49.90;;;;;;4882748;28;45870;-63
2023/01/21 05:30:39;;;;;;;3.55;2.05;;;13.70;49.90;;;;;;4891945;28;48303;-63
2023/01/21 05:33:04;;;;;;;2.90;2.08;;;13.60;49.90;;;;;;4907565;28;45209;-64
2023/01/21 05:35:30;;;;;;;2.70;2.25;;;13.60;49.90;;;;;;4892010;28;45606;-64
2023/01/21 05:37:55;;;;;;;2.90;2.03;;;13.60;49.90;;;;;;4911685;28;45635;-64
2023/01/21 05:40:21;;;;;;;2.70;2.05;;;13.60;49.90;;;;;;4890586;28;46701;-64
2023/01/21 05:42:46;;;;;;;3.15;2.10;;;13.60;49.90;;;;;;4892082;28;45461;-63
2023/01/21 05:45:12;;;;;;;3.58;2.40;;;13.60;50.00;;;;;;4909281;28;45873;-63
2023/01/21 05:47:37;;;;;;;3.00;1.95;;;13.60;49.90;;;;;;4908729;28;44854;-63
2023/01/21 05:50:03;;;;;;;2.75;2.17;;;13.60;49.90;;;;;;4885816;28;45916;-64
2023/01/21 05:52:29;;;;;;;3.50;2.38;;;13.60;49.90;;;;;;4889148;28;45306;-63
2023/01/21 05:54:54;;;;;;;2.13;1.83;;;13.60;50.00;;;;;;4909978;28;45348;-63
2023/01/21 05:57:20;;;;;;;4.00;2.40;;;13.60;49.90;;;;;;4892970;28;45683;-63
2023/01/21 05:59:45;;;;;;;4.13;2.45;;;13.50;49.90;;;;;;4889185;28;46179;-63
2023/01/21 06:02:11;;;;;;;6.65;2.88;;;13.50;49.90;;;;;;4906487;28;45260;-64
2023/01/21 06:04:36;;;;;;;2.88;2.30;;;13.50;49.90;;;;;;4890621;28;45841;-64
2023/01/21 06:07:03;;;;;;;3.20;2.10;;;13.50;49.90;;;;;;4891857;28;45592;-63
2023/01/21 06:09:29;;;;;;;2.50;1.75;;;13.50;49.90;;;;;;4906789;28;47295;-63
2023/01/21 06:11:54;;;;;;;3.08;2.13;;;13.50;49.90;;;;;;4907452;28;45553;-63
2023/01/21 06:14:20;;;;;;;3.47;2.45;;;13.50;50.00;;;;;;4909717;28;45789;-63
2023/01/21 06:16:45;;;;;;;2.50;2.10;;;13.50;49.90;;;;;;4900001;28;45952;-63
2023/01/21 06:19:11;;;;;;;2.45;1.98;;;13.50;50.00;;;;;;4877147;28;45383;-63
2023/01/21 06:21:36;;;;;;;2.72;1.85;;;13.50;49.90;;;;;;4892657;28;45482;-63
2023/01/21 06:24:02;;;;;;;3.53;2.10;;;13.50;50.30;;;;;;4908021;28;45910;-64
2023/01/21 06:26:28;;;;;;;2.10;1.85;;;13.50;50.00;;;;;;4891848;28;45969;-64
2023/01/21 06:28:56;;;;;;;3.60;2.45;;;13.50;50.00;;;;;;4909281;28;46243;-64
2023/01/21 06:31:22;;;;;;;2.85;2.30;;;13.50;50.10;;;;;;4890169;28;45668;-63
2023/01/21 06:33:48;;;;;;;3.17;2.22;;;13.40;49.90;;;;;;4871997;28;45407;-64
2023/01/21 06:36:13;;;;;;;2.92;2.17;;;13.50;50.00;;;;;;4910343;28;45220;-64
2023/01/21 06:38:39;;;;;;;3.00;2.38;;;13.40;50.00;;;;;;4909184;28;46274;-64
2023/01/21 06:41:04;;;;;;;3.45;2.38;;;13.40;49.90;;;;;;4888922;28;45773;-63
2023/01/21 06:43:30;;;;;;;2.55;2.08;;;13.40;50.00;;;;;;4904676;28;46131;-64
2023/01/21 06:45:55;;;;;;;3.63;2.08;;;13.40;50.00;;;;;;4903111;28;45637;-63
2023/01/21 06:48:21;;;;;;;3.55;2.38;;;13.30;50.00;;;;;;4887842;28;46431;-63
2023/01/21 06:50:46;;;;;;;2.60;2.08;;;13.40;50.00;;;;;;4887028;28;45702;-63
2023/01/21 06:53:12;;;;;;;2.75;2.20;;;13.40;50.00;;;;;;4905877;28;45153;-63
2023/01/21 06:55:37;;;;;;;3.22;2.42;;;13.40;50.10;;;;;;4905689;28;44930;-63
2023/01/21 06:58:03;;;;;;;2.63;2.03;;;13.40;50.10;;;;;;4858625;28;46259;-64
2023/01/21 07:00:28;;;;;;;2.92;2.15;;;13.30;50.00;;;;;;4886392;28;45274;-63
2023/01/21 07:02:56;;;;;;;2.55;2.17;;;13.30;50.00;;;;;;4903046;28;45267;-64
2023/01/21 07:05:21;;;;;;;4.07;2.40;;;13.30;50.10;;;;;;4874436;28;46289;-64
2023/01/21 07:07:47;;;;;;;2.90;2.10;;;13.30;50.00;;;;;;4907368;28;45837;-64
2023/01/21 07:10:12;;;;;;;2.97;2.20;;;13.30;50.10;;;;;;4892152;28;44818;-63
2023/01/21 07:12:38;;;;;;;5.45;2.63;;;13.30;50.10;;;;;;4863149;28;45330;-64
2023/01/21 07:15:04;;;;;;;3.63;2.30;;;13.30;50.10;;;;;;4909514;28;45252;-64
2023/01/21 07:17:29;;;;;;;3.05;2.22;;;13.30;50.10;;;;;;4910176;28;46337;-64
2023/01/21 07:19:55;;;;;;;2.95;2.20;;;13.30;50.10;;;;;;4893560;28;45572;-63
2023/01/21 07:22:20;;;;;;;3.42;2.25;;;13.20;50.00;;;;;;4894353;28;45332;-64
2023/01/21 07:24:46;;;;;;;3.03;2.10;;;13.30;50.10;;;;;;4894073;28;45651;-63
2023/01/21 07:27:12;;;;;;;2.45;2.15;;;13.20;50.00;;;;;;4893619;28;45069;-63
2023/01/21 07:29:37;;;;;;;3.10;2.40;;;13.30;50.10;;;;;;4894272;28;45710;-63
2023/01/21 07:32:03;;;;;;;3.28;2.10;;;13.30;50.10;;;;;;4891348;28;45501;-63
2023/01/21 07:34:28;;;;;;;2.75;2.35;;;13.20;50.10;;;;;;4894160;28;45646;-63
2023/01/21 07:36:54;;;;;;;2.72;2.10;;;13.20;50.00;;;;;;4891983;28;45369;-64
2023/01/21 07:39:19;;;;;;;3.05;1.90;;;13.20;50.10;;;;;;4893770;28;45999;-63
2023/01/21 07:41:45;;;;;;;3.55;2.20;;;13.20;50.10;;;;;;4882563;28;45736;-63
2023/01/21 07:44:11;;;;;;;2.55;1.83;;;13.20;50.00;;;;;;4892252;28;45739;-64
2023/01/21 07:46:36;;;;;;;2.60;2.13;;;13.20;50.10;;;;;;4888993;28;45636;-64
2023/01/21 07:49:02;;;;;;;3.40;2.30;;;13.20;50.10;;;;;;4878811;28;46162;-63
2023/01/21 07:51:27;;;;;;;3.35;2.30;;;13.20;50.10;;;;;;4891222;28;45627;-64
2023/01/21 07:53:55;;;;;;;2.30;1.90;;;13.20;50.10;;;;;;4877786;28;46226;-63
2023/01/21 07:56:20;;;;;;;2.65;2.22;;;13.20;50.10;;;;;;4883118;28;45953;-64
2023/01/21 07:58:46;;;;;;;3.45;2.40;;;13.20;50.10;;;;;;4889222;28;45384;-64
2023/01/21 08:01:12;;;;;;;2.58;1.98;;;13.20;50.20;;;;;;4890761;28;45819;-64
2023/01/21 08:03:37;;;;;;;3.38;2.05;;;13.10;50.10;;;;;;4874622;28;45552;-64
2023/01/21 08:06:04;;;;;;;2.80;2.10;;;13.10;50.10;;;;;;4909405;28;45158;-65
2023/01/21 08:08:30;;;;;;;3.30;2.10;;;13.10;50.10;;;;;;4874829;28;45704;-63
2023/01/21 08:10:55;;;;;;;3.65;2.33;;;13.10;50.10;;;;;;4862507;28;46295;-63
2023/01/21 08:13:21;;;;;;;3.03;2.28;;;13.10;50.10;;;;;;4874811;28;45329;-64
2023/01/21 08:15:50;;;;;;;3.42;2.30;;;13.10;50.10;;;;;;4888268;28;45384;-64
2023/01/21 08:18:16;;;;;;;3.40;2.05;;;13.10;50.10;;;;;;4891042;28;44743;-64
2023/01/21 08:20:42;;;;;;;3.30;1.90;;;13.10;50.10;;;;;;4866972;28;45598;-64
2023/01/21 08:23:08;;;;;;;2.92;2.28;;;13.10;50.10;;;;;;4872240;28;45700;-63
2023/01/21 08:25:33;;;;;;;3.72;2.40;;;13.10;50.10;;;;;;4887394;28;45285;-63
2023/01/21 08:27:59;;;;;;;2.92;2.20;;;13.10;50.10;;;;;;4877045;28;46135;-63
2023/01/21 08:30:24;;;;;;;3.55;2.45;;;13.10;50.10;;;;;;4892138;28;45439;-63
2023/01/21 08:32:50;;;;;;;3.22;2.03;;;13.10;50.20;;;;;;4888545;28;44674;-63
2023/01/21 08:35:16;;;;;;;4.32;2.42;;;13.10;50.10;;;;;;4885703;28;46026;-62
2023/01/21 08:37:41;;;;;;;3.22;2.10;;;13.10;50.20;;;;;;4886526;28;45642;-64
2023/01/21 08:40:07;;;;;;;2.60;1.90;;;13.10;50.20;;;;;;4888981;28;45261;-64
2023/01/21 08:42:33;;;;;;;3.38;2.35;;;13.10;50.10;;;;;;4889634;28;45464;-63
2023/01/21 08:44:58;;;;;;;3.60;2.30;;;13.10;50.20;;;;;;4880406;28;48538;-64
2023/01/21 08:47:24;;;;;;;3.22;2.33;;;13.00;50.20;;;;;;4874052;28;45999;-64
2023/01/21 08:49:49;;;;;;;3.40;2.50;;;13.00;50.10;;;;;;4908467;28;45324;-63
2023/01/21 08:52:16;;;;;;;3.05;2.08;;;13.00;50.10;;;;;;4910045;28;45568;-64
2023/01/21 08:54:42;;;;;;;2.10;1.90;;;13.00;50.10;;;;;;4861606;28;48003;-61
2023/01/21 08:57:07;;;;;;;2.75;2.08;;;13.00;50.10;;;;;;4906918;28;45450;-63
2023/01/21 08:59:33;;;;;;;2.58;1.92;;;13.00;50.10;;;;;;4907396;28;45247;-63
2023/01/21 09:01:59;;;;;;;3.30;2.22;;;13.00;50.10;;;;;;4888574;28;46584;-63
2023/01/21 09:04:24;;;;;;;2.55;1.98;;;13.00;50.20;;;;;;4906196;28;46263;-63
2023/01/21 09:06:49;;;;;;;2.40;1.90;;;13.00;50.10;;;;;;4906652;28;45358;-63
2023/01/21 09:09:15;;;;;;;3.25;2.38;;;13.00;50.10;;;;;;4878729;28;45393;-63
2023/01/21 09:11:41;;;;;;;3.08;2.42;;;13.00;50.10;;;;;;4907826;28;45785;-64
2023/01/21 09:14:06;;;;;;;2.88;2.17;;;13.00;50.20;;;;;;4884123;28;45032;-63
2023/01/21 09:16:32;;;;;;;3.22;2.00;;;13.00;50.10;;;;;;4888665;28;45784;-63
2023/01/21 09:18:58;;;;;;;3.33;2.28;;;13.00;50.20;;;;;;4908470;28;45715;-63
2023/01/21 09:21:25;;;;;;;3.10;2.20;;;12.90;50.10;;;;;;4889470;28;45577;-63
2023/01/21 09:23:50;;;;;;;2.28;1.92;;;12.90;50.10;;;;;;4891488;28;46915;-63
2023/01/21 09:26:17;;;;;;;3.25;2.10;;;12.90;50.10;;;;;;4890992;28;45366;-63
2023/01/21 09:28:43;;;;;;;2.38;2.05;;;12.90;50.10;;;;;;4905199;28;46542;-63
2023/01/21 09:31:11;;;;;;;3.03;2.15;;;12.90;50.10;;;;;;4873557;28;45605;-63
2023/01/21 09:33:37;;;;;;;2.97;2.20;;;12.90;50.10;;;;;;4877939;28;45890;-64
2023/01/21 09:36:04;;;;;;;2.45;1.98;;;12.90;50.10;;;;;;4877787;28;45633;-63
2023/01/21 09:38:30;;;;;;;2.50;2.05;;;12.90;50.20;;;;;;4906791;28;45319;-63
2023/01/21 09:40:58;;;;;;;4.22;2.10;;;12.90;50.10;;;;;;4870062;28;45010;-64
2023/01/21 09:43:27;;;;;;;2.30;1.75;;;12.90;50.10;;;;;;4873044;28;46977;-64
2023/01/21 09:45:54;;;;;;;3.58;2.00;;;12.90;50.20;;;;;;4889708;28;46078;-64
2023/01/21 09:48:30;;;;;;;2.95;2.20;;;12.90;50.10;;;;;;4877495;28;45476;-64
2023/01/21 09:50:56;;;;;;;2.53;1.50;;;12.90;50.20;;;;;;4876471;28;45570;-63
2023/01/21 09:53:33;;;;;;;3.22;2.10;;;12.90;50.10;;;;;;4874580;28;45683;-64
2023/01/21 09:56:00;;;;;;;2.72;2.03;;;12.90;50.10;;;;;;4891010;28;45409;-64
2023/01/21 09:58:44;;;;;;;2.95;2.05;;;12.90;50.20;;;;;;4874513;28;45383;-64
2023/01/21 10:01:31;;;;;;;2.88;1.77;;;12.90;50.20;;;;;;4905134;28;45856;-63
2023/01/21 10:04:32;;;;;;;2.60;1.67;;;12.80;50.10;;;;;;4875680;28;45174;-64
2023/01/21 10:07:17;;;;;;;2.80;1.98;;;12.90;50.20;;;;;;4906936;28;45682;-64
2023/01/21 10:09:54;;;;;;;2.78;1.98;;;12.80;50.20;;;;;;4887991;28;44712;-63
2023/01/21 10:12:30;;;;;;;2.65;2.13;;;12.80;50.10;;;;;;4899662;28;45636;-64
2023/01/21 10:15:17;;;;;;;2.88;2.38;;;12.80;50.20;;;;;;4885948;28;45320;-64
2023/01/21 10:17:50;;;;;;;2.47;1.65;;;12.80;50.10;;;;;;4887311;28;45362;-63
2023/01/21 10:20:46;;;;;;;2.97;2.10;;;12.80;50.10;;;;;;4886635;28;45423;-64
2023/01/21 10:23:37;;;;;;;3.42;2.22;;;12.80;50.20;;;;;;4874397;28;46847;-64
2023/01/21 10:26:06;;;;;;;2.83;2.00;;;12.80;50.20;;;;;;4885036;28;45533;-64
2023/01/21 10:28:31;;;;;;;2.50;2.15;;;12.80;50.10;;;;;;4866482;28;45210;-64
2023/01/21 10:31:14;;;;;;;2.50;2.08;;;12.80;50.10;;;;;;4886666;28;45029;-63
2023/01/21 10:33:39;;;;;;;2.55;1.80;;;12.80;50.20;;;;;;4905679;28;44770;-64
2023/01/21 10:36:18;;;;;;;2.92;2.00;;;12.80;50.10;;;;;;4879374;28;46732;-64
2023/01/21 10:39:00;;;;;;;4.20;2.17;;;12.80;50.10;;;;;;4888695;28;45676;-65
2023/01/21 10:41:38;;;;;;;2.10;1.80;;;12.80;50.10;;;;;;4891174;28;45329;-63
2023/01/21 10:44:37;;;;;;;2.78;1.90;;;12.80;50.10;;;;;;4911305;28;46235;-62
2023/01/21 10:47:13;;;;;;;2.55;2.08;;;12.80;50.20;;;;;;4894641;28;46473;-63
2023/01/21 10:49:58;;;;;;;3.70;2.38;;;12.80;50.10;;;;;;4895525;28;45668;-63
2023/01/21 10:52:35;;;;;;;2.45;1.83;;;12.80;50.10;;;;;;4910832;28;45738;-63
2023/01/21 10:55:19;;;;;;;2.60;1.88;;;12.80;50.20;;;;;;4891798;28;45439;-63
2023/01/21 10:57:44;;;;;;;3.25;2.10;;;12.80;50.20;;;;;;4895350;28;46102;-64
2023/01/21 11:00:31;;;;;;;2.28;1.88;;;12.80;50.20;;;;;;4909388;28;45152;-63
2023/01/21 11:02:59;;;;;;;2.35;1.98;;;12.80;50.20;;;;;;4890377;28;46099;-64
2023/01/21 11:05:25;;;;;;;2.20;1.90;;;12.70;50.20;;;;;;4859860;28;45096;-64
2023/01/21 11:07:51;;;;;;;2.80;2.10;;;12.70;50.20;;;;;;4876509;28;45402;-63
2023/01/21 11:10:22;;;;;;;3.33;2.10;;;12.70;50.20;;;;;;4893232;28;46280;-63
2023/01/21 11:12:47;;;;;;;3.63;2.10;;;12.80;50.20;;;;;;4865181;28;45828;-63
2023/01/21 11:15:15;;;;;;;3.10;2.30;;;12.70;50.10;;;;;;4878753;28;45316;-63
2023/01/21 11:17:42;;;;;;;3.20;1.73;;;12.70;50.10;;;;;;4912959;28;45356;-63
2023/01/21 11:20:43;;;;;;;1.92;1.73;;;12.70;50.20;;;;;;4879225;28;45692;-63
2023/01/21 11:23:29;;;;;;;3.05;2.40;;;12.70;50.20;;;;;;4907162;28;44893;-63
2023/01/21 11:26:05;;;;;;;2.08;1.70;;;12.70;50.20;;;;;;4894965;28;45537;-63
2023/01/21 11:28:31;;;;;;;2.78;2.00;;;12.70;50.50;;;;;;4912513;28;46971;-63
2023/01/21 11:31:14;;;;;;;3.35;2.40;;;12.70;50.20;;;;;;4893058;28;45612;-63
2023/01/21 11:33:40;;;;;;;2.60;2.00;;;12.70;50.20;;;;;;4912632;28;45812;-63
2023/01/21 11:36:17;;;;;;;2.58;2.03;;;12.70;50.20;;;;;;4892664;28;45449;-63
2023/01/21 11:38:44;;;;;;;2.85;1.90;;;12.70;50.20;;;;;;4882173;28;45339;-63
2023/01/21 11:41:17;;;;;;;3.17;2.03;;;12.70;50.10;;;;;;4877666;28;45300;-64
2023/01/21 11:43:44;;;;;;;2.25;1.88;;;12.70;50.20;;;;;;4893923;28;45735;-63
2023/01/21 11:46:26;;;;;;;1.90;1.50;;;12.70;50.20;;;;;;4876885;28;45398;-63
2023/01/21 11:49:07;;;;;;;2.50;1.80;;;12.70;50.20;;;;;;4893734;28;46137;-64
2023/01/21 11:51:39;;;;;;;2.70;2.03;;;12.70;50.20;;;;;;4911271;28;45671;-62
2023/01/21 11:54:16;;;;;;;3.17;2.10;;;12.70;50.20;;;;;;4894509;28;45429;-63
2023/01/21 11:57:00;;;;;;;4.85;2.47;;;12.70;50.20;;;;;;4864484;28;45624;-63
2023/01/21 11:59:34;;;;;;;2.75;2.15;;;12.70;50.30;;;;;;4864202;28;47811;-63
2023/01/21 12:02:17;;;;;;;1.80;1.55;;;12.70;50.30;;;;;;4890351;28;44905;-63
2023/01/21 12:04:44;;;;;;;2.72;2.00;;;12.70;50.30;;;;;;4892711;28;45425;-63
2023/01/21 12:07:20;;;;;;;2.22;1.77;;;12.60;50.30;;;;;;4890511;28;45300;-62
2023/01/21 12:10:17;;;;;;;2.88;2.03;;;12.60;50.20;;;;;;4880421;28;47490;-63
2023/01/21 12:12:52;;;;;;;2.83;1.90;;;12.60;50.20;;;;;;4870758;28;44886;-63
2023/01/21 12:15:38;;;;;;;3.40;2.22;;;12.70;50.30;;;;;;4893787;28;46051;-64
2023/01/21 12:18:29;;;;;;;2.97;1.92;;;12.70;50.30;;;;;;4880586;28;45416;-63
2023/01/21 12:21:27;;;;;;;4.47;2.22;;;12.60;50.20;;;;;;4894054;28;44950;-64
2023/01/21 12:24:17;;;;;;;3.22;2.10;;;12.70;50.30;;;;;;4891444;28;45633;-64
2023/01/21 12:26:44;;;;;;;2.65;2.03;;;12.60;50.20;;;;;;4893597;28;44731;-62
2023/01/21 12:29:22;;;;;;;2.33;1.90;;;12.60;50.20;;;;;;4894550;28;44764;-63
2023/01/21 12:31:55;;;;;;;2.63;2.00;;;12.60;50.20;;;;;;4909231;28;46045;-63
2023/01/21 12:34:45;;;;;;;3.67;2.60;;;12.60;50.20;;;;;;4891568;28;45529;-63
2023/01/21 12:37:12;;;;;;;2.72;1.80;;;12.60;50.30;;;;;;4882220;28;44866;-64
2023/01/21 12:39:38;;;;;;;3.75;2.10;;;12.60;50.20;;;;;;4862522;28;46289;-63
2023/01/21 12:42:20;;;;;;;2.70;1.95;;;12.60;50.20;;;;;;4865546;28;46766;-64
2023/01/21 12:44:59;;;;;;;2.63;1.88;;;12.60;50.20;;;;;;4851082;28;45548;-63
2023/01/21 12:47:33;;;;;;;2.72;2.17;;;12.60;50.20;;;;;;4894533;28;44766;-64
2023/01/21 12:50:22;;;;;;;2.80;2.05;;;12.60;50.20;;;;;;4909441;28;45326;-64
2023/01/21 12:53:09;;;;;;;2.80;1.90;;;12.60;50.20;;;;;;4895277;28;46237;-64
2023/01/21 12:55:56;;;;;;;2.60;1.90;;;12.60;50.20;;;;;;4894012;28;46218;-63
2023/01/21 12:58:24;;;;;;;2.25;1.75;;;12.60;50.20;;;;;;4893658;28;45296;-63
2023/01/21 13:00:50;;;;;;;4.65;2.08;;;12.60;50.20;;;;;;4894085;28;45991;-63
2023/01/21 13:03:27;;;;;;;3.22;2.00;;;12.60;50.20;;;;;;4877693;28;46899;-64
2023/01/21 13:05:57;;;;;;;3.63;2.17;;;12.60;50.20;;;;;;4906852;28;45293;-63
2023/01/21 13:08:42;;;;;;;3.08;2.30;;;12.60;50.20;;;;;;4880455;28;45281;-63
2023/01/21 13:11:15;;;;;;;2.47;2.00;;;12.60;50.20;;;;;;4892553;28;45349;-63
2023/01/21 13:13:43;;;;;;;3.50;2.25;;;12.60;50.20;;;;;;4895045;28;46840;-63
2023/01/21 13:16:08;;;;;;;3.08;2.13;;;12.60;50.20;;;;;;4876039;28;45302;-64
2023/01/21 13:18:38;;;;;;;3.30;2.42;;;12.60;50.20;;;;;;4887955;28;46340;-64
2023/01/21 13:21:19;;;;;;;2.83;1.88;;;12.50;50.10;;;;;;4863866;28;45814;-62
2023/01/21 13:23:52;;;;;;;3.20;2.13;;;12.60;50.20;;;;;;4856935;28;45967;-63
2023/01/21 13:26:29;;;;;;;3.47;2.50;;;12.60;50.10;;;;;;4879755;28;44952;-64
2023/01/21 13:29:07;;;;;;;3.33;2.08;;;12.60;50.20;;;;;;4892163;28;45440;-63
2023/01/21 13:31:41;;;;;;;3.05;1.98;;;12.60;50.10;;;;;;4909491;28;45721;-63
2023/01/21 13:34:13;;;;;;;2.80;2.00;;;12.60;50.10;;;;;;4909100;28;47339;-64
2023/01/21 13:36:54;;;;;;;2.85;2.03;;;12.60;50.10;;;;;;4877930;28;45107;-64
2023/01/21 13:39:38;;;;;;;3.22;2.10;;;12.60;50.20;;;;;;4890302;28;45625;-64
2023/01/21 13:42:23;;;;;;;2.75;1.95;;;12.50;50.10;;;;;;4892854;28;45488;-64
2023/01/21 13:45:04;;;;;;;2.35;1.90;;;12.50;50.20;;;;;;4896336;28;46229;-64
2023/01/21 13:47:30;;;;;;;3.42;2.10;;;12.50;50.30;;;;;;4908879;28;45277;-64
2023/01/21 13:50:07;;;;;;;3.45;2.08;;;12.50;50.20;;;;;;4892769;28;45060;-63
2023/01/21 13:52:42;;;;;;;2.92;2.10;;;12.50;50.20;;;;;;4877154;28;45470;-64
2023/01/21 13:55:45;;;;;;;3.03;2.25;;;12.50;50.20;;;;;;4887350;28;46298;-64
2023/01/21 13:58:17;;;;;;;3.80;2.15;;;12.50;50.20;;;;;;4837446;28;45953;-64
2023/01/21 14:00:45;;;;;;;2.67;1.90;;;12.50;50.20;;;;;;4891584;28;45565;-64
2023/01/21 14:03:35;;;;;;;3.03;2.25;;;12.50;50.20;;;;;;4901485;28;45730;-64
2023/01/21 14:06:23;;;;;;;2.75;1.90;;;12.50;50.30;;;;;;4893383;28;45844;-64
2023/01/21 14:08:54;;;;;;;3.20;2.15;;;12.50;50.20;;;;;;4909408;28;45756;-64
2023/01/21 14:11:22;;;;;;;3.65;2.17;;;12.50;50.20;;;;;;4908233;28;45614;-64
2023/01/21 14:14:15;;;;;;;3.55;2.45;;;12.50;50.30;;;;;;4892007;28;45562;-64
2023/01/21 14:17:02;;;;;;;3.63;2.00;;;12.50;50.20;;;;;;4875123;28;46920;-64
2023/01/21 14:19:40;;;;;;;3.05;2.15;;;12.50;50.30;;;;;;4889922;28;45770;-64
2023/01/21 14:22:39;;;;;;;3.03;2.15;;;12.50;50.30;;;;;;4905337;28;46127;-64
2023/01/21 14:25:08;;;;;;;4.32;2.40;;;12.50;50.40;;;;;;4905100;28;45534;-64
2023/01/21 14:28:09;;;;;;;2.92;2.13;;;12.50;50.30;;;;;;4891291;28;45606;-64
2023/01/21 14:30:44;;;;;;;3.67;2.22;;;12.40;50.20;;;;;;4832335;29;45483;-64
2023/01/21 14:33:22;;;;;;;3.42;2.08;;;12.40;50.30;;;;;;4880993;28;45332;-64
2023/01/21 14:35:55;;;;;;;4.38;2.55;;;12.40;50.40;;;;;;4890681;28;45486;-64
2023/01/21 14:38:32;;;;;;;2.67;2.30;;;12.40;50.30;;;;;;4908231;28;45502;-64
2023/01/21 14:41:07;;;;;;;2.90;2.17;;;12.40;50.30;;;;;;4907805;28;45398;-64
2023/01/21 14:43:32;;;;;;;3.65;2.35;;;12.40;50.30;;;;;;4884179;28;46323;-64
2023/01/21 14:45:59;;;;;;;2.53;2.10;;;12.40;50.30;;;;;;4907697;28;46244;-64
2023/01/21 14:48:32;;;;;;;3.60;2.28;;;12.40;50.30;;;;;;4891161;28;47069;-63
2023/01/21 14:51:10;;;;;;;2.40;2.03;;;12.40;50.30;;;;;;4885686;28;45705;-64
2023/01/21 14:53:45;;;;;;;2.85;1.85;;;12.40;50.30;;;;;;4875582;28;45402;-63
2023/01/21 14:56:19;;;;;;;3.53;2.30;;;12.40;50.30;;;;;;4887265;28;46275;-65
2023/01/21 14:58:59;;;;;;;4.07;2.20;;;12.40;50.30;;;;;;4908107;28;45455;-62
2023/01/21 15:01:30;;;;;;;3.13;2.33;;;12.40;50.30;;;;;;4855023;28;46291;-64
2023/01/21 15:03:55;;;;;;;3.17;2.35;;;12.40;50.90;;;;;;4906227;28;45327;-63
2023/01/21 15:06:21;;;;;;;3.85;2.30;;;12.40;50.30;;;;;;4891544;28;45328;-64
2023/01/21 15:08:49;;;;;;;4.22;2.63;;;12.40;50.30;;;;;;4863396;28;47115;-64
2023/01/21 15:11:22;;;;;;;3.90;2.50;;;12.40;50.30;;;;;;4854346;28;45447;-64
2023/01/21 15:14:01;;;;;;;5.25;2.45;;;12.40;50.40;;;;;;4872341;28;46159;-64
2023/01/21 15:16:26;;;;;;;2.70;2.15;;;12.40;50.40;;;;;;4886071;28;45401;-64
2023/01/21 15:21:42;;;;;;;3.80;2.38;;;12.40;50.30;;;;;;4870369;28;46311;-63
2023/01/21 15:24:18;;;;;;;4.07;2.38;;;12.40;50.30;;;;;;4874154;28;45978;-64
2023/01/21 15:27:12;;;;;;;4.05;2.83;;;12.40;50.30;;;;;;4866823;29;45316;-64
2023/01/21 15:29:39;;;;;;;4.70;2.60;;;12.40;50.30;;;;;;4849573;29;45446;-65
2023/01/21 15:32:34;;;;;;;4.13;2.45;;;12.30;50.30;;;;;;4837338;29;45635;-63
2023/01/21 15:35:24;;;;;;;4.07;2.67;;;12.40;50.40;;;;;;4828650;29;46623;-64
2023/01/21 15:37:51;;;;;;;5.22;2.85;;;12.40;50.30;;;;;;4856997;29;47067;-64
2023/01/21 15:40:23;;;;;;;5.10;2.53;;;12.30;50.30;;;;;;4857404;29;47128;-65
2023/01/21 15:43:27;;;;;;;3.20;2.10;;;12.30;50.30;;;;;;4843081;29;46232;-64
2023/01/21 15:46:10;;;;;;;3.75;2.80;;;12.30;50.40;;;;;;4857587;29;45089;-64
2023/01/21 15:48:44;;;;;;;4.70;2.58;;;12.30;50.40;;;;;;4854171;29;45731;-64
2023/01/21 15:51:33;;;;;;;4.75;2.63;;;12.30;50.40;;;;;;4842060;29;46706;-64
2023/01/21 15:54:13;;;;;;;4.93;3.15;;;12.30;50.50;;;;;;4811213;29;45461;-64
2023/01/21 15:56:54;;;;;;;4.07;2.50;;;12.30;50.40;;;;;;4813510;29;45826;-64
2023/01/21 15:59:22;;;;;;;4.57;3.00;;;12.30;50.40;;;;;;4845338;29;45806;-65
2023/01/21 16:02:20;;;;;;;4.15;2.67;;;12.30;50.50;;;;;;4845410;29;46224;-64
2023/01/21 16:04:57;;;;;;;3.33;2.50;;;12.30;50.50;;;;;;4843640;29;45473;-64
2023/01/21 16:07:52;;;;;;;3.65;2.50;;;12.20;50.40;;;;;;4851210;29;45613;-64
2023/01/21 16:10:36;;;;;;;4.43;2.88;;;12.20;50.40;;;;;;4833130;29;46677;-65
2023/01/21 16:13:23;;;;;;;4.00;2.58;;;12.20;50.40;;;;;;4818962;29;46914;-63
2023/01/21 16:16:04;;;;;;;4.25;2.88;;;12.20;50.50;;;;;;4847329;29;46229;-63
2023/01/21 16:18:36;;;;;;;4.88;2.80;;;12.20;50.40;;;;;;4852963;29;45389;-63
2023/01/21 16:21:01;;;;;;;4.07;2.60;;;12.20;50.40;;;;;;4868019;29;45561;-63
2023/01/21 16:23:31;;;;;;;3.40;2.30;;;12.20;50.40;;;;;;4851209;29;45948;-63
2023/01/21 16:25:57;;;;;;;4.30;2.70;;;12.20;50.50;;;;;;4849235;29;45231;-63
2023/01/21 16:28:22;;;;;;;4.13;2.75;;;12.20;50.40;;;;;;4835206;29;46154;-64
2023/01/21 16:30:52;;;;;;;3.97;2.58;;;12.20;50.40;;;;;;4838031;29;46404;-64
2023/01/21 16:33:18;;;;;;;4.82;3.08;;;12.20;50.50;;;;;;4838076;29;46490;-64
2023/01/21 16:35:48;;;;;;;3.80;2.60;;;12.20;50.50;;;;;;4849825;29;46257;-64
2023/01/21 16:38:33;;;;;;;4.03;2.67;;;12.20;50.40;;;;;;4865938;29;46331;-65
2023/01/21 16:41:22;;;;;;;4.10;2.70;;;12.20;50.50;;;;;;4851198;29;46200;-64
2023/01/21 16:43:49;;;;;;;4.43;2.90;;;12.20;50.50;;;;;;4868888;29;45724;-64
2023/01/21 16:46:22;;;;;;;3.97;2.85;;;12.20;50.50;;;;;;4844667;29;45904;-63
2023/01/21 16:48:56;;;;;;;3.95;2.38;;;12.20;50.50;;;;;;4842401;29;45162;-65
2023/01/21 16:51:23;;;;;;;4.88;2.70;;;12.20;50.50;;;;;;4846270;29;45273;-63
2023/01/21 16:53:52;;;;;;;3.33;2.25;;;12.20;50.60;;;;;;4848145;29;45502;-63
2023/01/21 16:56:26;;;;;;;6.18;2.72;;;12.10;50.50;;;;;;4837334;29;45713;-64
2023/01/21 16:58:52;;;;;;;3.60;2.58;;;12.10;50.60;;;;;;4844184;29;46405;-64
2023/01/21 17:01:17;;;;;;;5.22;2.97;;;12.10;50.50;;;;;;4832881;29;45881;-64
2023/01/21 17:03:43;;;;;;;5.03;3.17;;;12.10;50.50;;;;;;4849829;29;45384;-64
2023/01/21 17:06:24;;;;;;;4.35;2.95;;;12.10;50.50;;;;;;4835496;29;46335;-64
2023/01/21 17:08:58;;;;;;;3.85;2.50;;;12.10;50.50;;;;;;4852499;29;46645;-64
2023/01/21 17:11:23;;;;;;;4.63;2.95;;;12.10;50.50;;;;;;4836374;29;45247;-64
2023/01/21 17:13:49;;;;;;;3.78;2.75;;;12.10;50.50;;;;;;4836725;29;46147;-63